CEM2 weather

Calgary (Rockyview Hospital) Heliport
Calgary, Alberta, Canada

Public forecast

Using degrees Celsius for public forecast. Weather courtesy of forecast.io.

Closest aviation weather report (METAR) to Calgary (Rockyview Hospital) Heliport

Closest report is Calgary International Airport, 8.1 nm (15.0 km) NNE. Retrieved 2019/12/16 10:00 UTC (3 minutes ago):

CYYC 161000Z 28013G18KT 15SM SKC M03/M16 A2991 RMK SLP185

Closest aviation forecast (TAF) to Calgary (Rockyview Hospital) Heliport

Closest forecast is Calgary International Airport, 8.1 nm (15.0 km) NNE. Retrieved 2019/12/16 09:42 UTC (21 minutes ago):

TAF CYYC 160838Z 1609/1706 27012KT P6SM FEW170 FM161900 26010KT P6SM SCT120 BKN200 RMK NXT FCST BY 161200Z